Center Hill Observed Data For Previous 48 Hours

Caption
Day and Hour Reservoir Elevation (behind dam)* Tailwater Elevation (below dam)* Average Hourly Discharge*
7/25/2017 1 AM CDT 632.30 478.10 300
7/25/2017 2 AM CDT 632.31 478.11 300
7/25/2017 3 AM CDT 632.32 478.12 300
7/25/2017 4 AM CDT 632.33 478.13 300
7/25/2017 5 AM CDT 632.34 478.14 300
7/25/2017 6 AM CDT 632.35 478.15 300
7/25/2017 7 AM CDT 632.36 478.16 300
7/25/2017 8 AM CDT 632.37 478.17 300
7/25/2017 9 AM CDT 632.38 478.18 300
7/25/2017 10 AM CDT 632.39 478.19 300
7/25/2017 11 AM CDT 632.39 483.29 5,230
7/25/2017 12 PM CDT 632.39 483.89 5,235
7/25/2017 1 PM CDT 632.39 484.19 5,255
7/25/2017 2 PM CDT 632.38 484.38 5,255
7/25/2017 3 PM CDT 632.36 484.46 5,255
7/25/2017 4 PM CDT 632.34 484.54 5,255
7/25/2017 5 PM CDT 632.34 481.54 300
7/25/2017 6 PM CDT 632.34 479.54 275
7/25/2017 7 PM CDT 632.34 478.74 250
7/25/2017 8 PM CDT 632.34 478.34 250
7/25/2017 9 PM CDT 632.34 478.14 250
7/25/2017 10 PM CDT 632.35 478.05 250
7/25/2017 11 PM CDT 632.35 478.05 250
7/26/2017 12 AM CDT 632.36 478.06 250
7/26/2017 1 AM CDT 632.38 477.98 250
7/26/2017 2 AM CDT 632.39 477.99 250
7/26/2017 3 AM CDT 632.39 477.99 250
7/26/2017 4 AM CDT 632.41 478.01 250
7/26/2017 5 AM CDT 632.42 478.02 250
7/26/2017 6 AM CDT 632.43 478.03 250
7/26/2017 7 AM CDT 632.43 478.00 250
7/26/2017 8 AM CDT 632.45 478.05 250
7/26/2017 9 AM CDT 632.47 478.07 265
7/26/2017 10 AM CDT 632.47 478.07 300
7/26/2017 11 AM CDT 632.46 483.36 5,230
7/26/2017 12 PM CDT 632.47 483.97 5,235
7/26/2017 1 PM CDT 632.47 484.07 5,235
7/26/2017 2 PM CDT 632.46 484.26 5,255
7/26/2017 3 PM CDT 632.44 484.34 5,255
7/26/2017 4 PM CDT 632.44 484.54 5,255
7/26/2017 5 PM CDT 632.44 481.04 300
7/26/2017 6 PM CDT 632.42 479.62 300

Elevations are in feet above sea level. Discharges are in cubic feet per second and are reported at the end of the hour.